Latest Weather Observations for Biloela

IDQ60801

Issued at 6:06 pm EST Monday 22 December 2014 (issued every 30 minutes, with the page automatically refreshed every 10 minutes)

About weather observations | Map of weather stations | Latest weather observations for QLD | Other Formats
Station Details ID: 039089 Name: THANGOOL AIRPORT Lat: -24.49 Lon: 150.57 Height: 193.1 m
Data from the previous 72 hours. | See also: Recent months at Biloela
Date/Time
EST
Temp
°C
App
Temp
°C
Dew
Point
Rel
Hum
%
Delta-T
°C
Wind Press
QNH
hPa
Press
MSL
hPa
Rain
since 9 am
mm
Dir
 
Spd
km/h
Gust
km/h
Spd
kts
Gust
kts
22/06:00pm 28.7 28.3 14.1 40 8.8 ESE 9 13 5 7 1013.3 1012.2 0.0
22/05:30pm 29.9 27.8 13.6 36 9.8 E 17 28 9 15 1013.0 - 0.0
22/05:00pm 30.3 29.5 14.0 37 9.9 ESE 11 19 6 10 1012.7 - 0.0
22/04:30pm 29.9 29.1 14.0 37 9.6 SE 11 17 6 9 1012.7 - 0.0
22/04:00pm 30.5 29.0 14.2 37 9.9 ESE 15 24 8 13 1012.7 - 0.0
22/03:30pm 30.4 29.1 14.9 39 9.6 E 15 22 8 12 1012.9 - 0.0
22/03:00pm 30.7 30.2 15.9 40 9.3 ESE 13 19 7 10 1013.3 1012.2 0.0
22/02:30pm 29.4 27.7 14.8 41 8.9 ENE 17 26 9 14 1013.7 - 0.0
22/02:00pm 30.2 30.3 16.6 44 8.6 SE 11 20 6 11 1014.2 - 0.0
22/01:30pm 29.5 29.0 14.9 41 9.0 E 11 19 6 10 1014.7 - 0.0
22/01:00pm 29.0 29.7 16.2 46 8.0 SSE 7 11 4 6 1015.1 - 0.0
22/12:30pm 28.7 28.8 16.6 48 7.6 SSE 11 19 6 10 1015.6 - 0.0
22/12:00pm 28.1 28.8 16.1 48 7.5 SSE 7 13 4 7 1016.0 1014.9 0.0
22/11:30am 28.2 27.9 15.5 46 7.8 ESE 11 17 6 9 1016.5 - 0.0
22/11:00am 27.8 27.5 16.4 50 7.1 SSE 13 20 7 11 1016.7 - 0.0
22/10:30am 26.9 26.6 16.5 53 6.5 SSE 13 20 7 11 1016.9 - 0.0
22/10:00am 27.0 25.9 16.3 52 6.6 ESE 17 26 9 14 1016.9 - 0.0
22/09:30am 26.0 24.6 16.5 55 5.9 ESE 19 24 10 13 1017.0 - 0.0
22/09:00am 25.5 24.6 16.9 59 5.4 ESE 17 30 9 16 1016.9 1015.9 0.6
22/08:30am 25.2 24.1 17.4 62 4.9 ESE 19 28 10 15 1016.7 - 0.6
22/08:00am 24.3 24.1 16.6 62 4.8 ESE 13 20 7 11 1016.8 - 0.6
22/07:30am 23.7 23.0 16.5 64 4.4 ESE 15 22 8 12 1016.8 - 0.6
22/07:00am 23.4 23.1 17.4 69 3.7 ESE 15 20 8 11 1016.5 - 0.6
22/06:30am 22.8 22.8 17.3 71 3.4 ESE 13 20 7 11 1016.5 - 0.6
22/06:00am 22.4 23.8 18.6 79 2.4 SE 9 13 5 7 1016.1 1015.0 0.6
22/05:30am 21.6 22.6 17.8 79 2.4 ESE 9 13 5 7 1015.4 - 0.6
22/05:00am 21.3 22.8 18.1 82 2.0 ESE 7 9 4 5 1015.1 - 0.6
22/04:30am 21.1 22.7 18.3 84 1.8 ESE 7 11 4 6 1014.7 - 0.6
22/04:00am 21.4 23.4 19.1 87 1.5 SE 7 9 4 5 1014.3 - 0.6
22/03:30am 21.6 23.3 19.3 87 1.5 E 9 9 5 5 1013.8 - 0.6
22/03:00am 21.8 24.0 19.2 85 1.7 N 6 7 3 4 1014.2 1013.1 0.6
22/02:30am 21.8 24.2 19.7 88 1.4 NNW 6 7 3 4 1014.7 - 0.6
22/02:00am 22.0 25.4 19.4 85 1.7 CALM 0 0 0 0 1015.2 - 0.6
22/01:30am 21.5 24.1 19.2 87 1.5 SSW 4 7 2 4 1015.9 - 0.6
22/01:00am 21.2 24.2 18.4 84 1.8 CALM 0 0 0 0 1015.9 - 0.6
22/12:30am 21.5 24.4 18.3 82 2.0 CALM 0 0 0 0 1016.1 - 0.6
22/12:00am 22.4 24.2 18.4 78 2.5 E 6 9 3 5 1016.5 1015.5 0.6
 
Date/Time
EST
Temp
°C
App
Temp
°C
Dew
Point
Rel
Hum
%
Delta-T
°C
Wind Press
QNH
hPa
Press
MSL
hPa
Rain
since 9 am
mm
Dir
 
Spd
km/h
Gust
km/h
Spd
kts
Gust
kts
21/11:30pm 22.5 23.8 18.5 78 2.5 E 9 13 5 7 1017.1 - 0.6
21/11:00pm 23.0 23.3 18.7 77 2.7 ENE 15 20 8 11 1016.6 - 0.6
21/10:30pm 23.0 23.8 19.0 78 2.6 NE 13 17 7 9 1016.5 - 0.6
21/10:00pm 23.4 25.6 19.5 79 2.5 E 7 13 4 7 1016.9 - 0.6
21/09:30pm 23.5 24.6 19.6 79 2.5 NE 13 20 7 11 1016.3 - 0.6
21/09:00pm 24.1 26.4 19.4 75 3.0 NE 6 11 3 6 1016.4 1015.4 0.2
21/08:30pm 24.6 24.6 19.0 71 3.6 ENE 17 24 9 13 1015.7 - 0.0
21/08:00pm 24.9 23.9 18.8 69 3.9 NNE 22 32 12 17 1015.2 - 0.0
21/07:30pm 25.2 23.6 19.1 69 3.9 NE 26 35 14 19 1014.6 - 0.0
21/07:00pm 25.5 26.0 19.2 68 4.1 NNE 15 22 8 12 1014.6 - 0.0
21/06:30pm 26.5 25.8 19.4 65 4.6 NNE 22 33 12 18 1014.0 - 0.0
21/06:00pm 28.2 26.8 18.9 57 6.0 NNE 24 35 13 19 1013.4 1012.3 0.0
21/05:30pm 29.7 29.1 17.5 48 7.8 NNE 17 24 9 13 1012.9 - 0.0
21/05:00pm 29.3 28.4 16.8 47 7.9 NE 17 22 9 12 1012.7 - 0.0
21/04:30pm 29.8 27.7 16.2 43 8.5 E 22 28 12 15 1012.8 - 0.0
21/04:00pm 30.9 30.9 15.3 38 9.7 N 9 15 5 8 1012.8 - 0.0
21/03:30pm 31.7 32.4 16.0 38 9.9 SW 7 13 4 7 1013.1 - 0.0
21/03:00pm 31.1 30.9 16.7 42 9.1 WNW 13 20 7 11 1013.5 1012.4 0.0
21/02:30pm 31.9 31.5 18.1 43 9.0 NNW 17 22 9 12 1014.0 - 0.0
21/02:00pm 31.2 31.3 15.6 39 9.7 NW 9 17 5 9 1014.3 - 0.0
21/01:30pm 30.4 30.7 17.1 44 8.5 N 11 19 6 10 1014.7 - 0.0
21/01:00pm 30.8 31.4 16.8 43 8.9 ENE 9 15 5 8 1015.2 - 0.0
21/12:30pm 29.2 30.1 16.7 46 7.9 E 7 15 4 8 1015.6 - 0.0
21/12:00pm 29.0 29.4 16.2 46 8.0 W 9 15 5 8 1016.2 1015.1 0.0
21/11:30am 28.9 29.7 15.8 45 8.1 NNE 6 11 3 6 1016.5 - 0.0
21/11:00am 29.3 29.9 16.8 47 7.9 N 9 13 5 7 1016.7 - 0.0
21/10:30am 28.4 28.4 15.3 45 8.1 N 9 17 5 9 1016.9 - 0.0
21/10:00am 28.9 29.9 18.7 54 6.6 N 11 15 6 8 1017.0 - 0.0
21/09:30am 27.5 28.7 17.4 54 6.4 S 7 13 4 7 1017.2 - 0.0
21/09:00am 26.6 27.1 17.4 57 5.8 SE 11 13 6 7 1017.3 1016.3 0.0
21/08:30am 26.2 27.7 17.6 59 5.4 SE 6 13 3 7 1017.2 - 0.0
21/08:00am 25.9 27.4 17.5 59 5.3 ESE 6 9 3 5 1017.0 - 0.0
21/07:30am 25.2 27.4 19.6 71 3.6 E 7 11 4 6 1016.9 - 0.0
21/07:00am 22.7 26.1 19.3 81 2.2 CALM 0 0 0 0 1016.6 - 0.0
21/06:30am 20.9 24.0 18.7 87 1.4 CALM 0 0 0 0 1016.2 - 0.0
21/06:00am 19.9 23.0 18.7 93 0.8 CALM 0 0 0 0 1015.8 1014.7 0.0
21/05:30am 18.4 20.8 17.1 92 0.8 CALM 0 0 0 0 1015.3 - 0.0
21/05:29am 18.4 20.8 17.1 92 0.8 CALM 0 0 0 0 1015.3 - 0.0
21/05:09am 18.6 21.2 17.4 93 0.7 CALM 0 0 0 0 1015.0 - 0.0
21/05:00am 18.9 21.6 17.7 93 0.7 CALM 0 0 0 0 1014.8 - 0.0
21/04:30am 19.4 22.3 18.2 93 0.7 CALM 0 0 0 0 1014.4 - 0.0
21/04:00am 19.4 21.9 18.1 92 0.8 ENE 2 9 1 5 1014.1 - 0.0
21/03:30am 19.4 21.4 17.9 91 0.9 E 4 9 2 5 1013.8 - 0.0
21/03:00am 19.8 21.6 18.3 91 0.9 S 6 9 3 5 1013.8 1012.7 0.0
21/02:30am 20.1 23.0 18.2 89 1.2 CALM 0 0 0 0 1013.9 - 0.0
21/02:00am 20.1 22.6 17.3 84 1.7 CALM 0 0 0 0 1013.9 - 0.0
21/01:30am 20.9 23.5 17.5 81 2.1 CALM 0 0 0 0 1014.2 - 0.0
21/01:00am 22.1 25.2 18.7 81 2.2 CALM 0 0 0 0 1014.3 - 0.0
21/12:30am 22.6 23.5 18.4 77 2.7 ENE 11 15 6 8 1014.5 - 0.0
21/12:00am 22.8 24.2 18.6 77 2.7 NE 9 13 5 7 1014.7 1013.6 0.0
 
Date/Time
EST
Temp
°C
App
Temp
°C
Dew
Point
Rel
Hum
%
Delta-T
°C
Wind Press
QNH
hPa
Press
MSL
hPa
Rain
since 9 am
mm
Dir
 
Spd
km/h
Gust
km/h
Spd
kts
Gust
kts
20/11:30pm 23.3 24.0 18.8 76 2.9 NE 13 19 7 10 1014.9 - 0.0
20/11:00pm 23.5 25.0 19.0 76 2.9 NE 9 15 5 8 1015.1 - 0.0
20/10:30pm 23.5 25.4 19.0 76 2.9 ENE 7 13 4 7 1015.3 - 0.0
20/10:00pm 24.1 25.8 19.4 75 3.0 E 9 17 5 9 1015.2 - 0.0
20/09:30pm 24.1 27.1 19.2 74 3.2 NNE 2 7 1 4 1014.8 - 0.0
20/09:00pm 24.4 26.5 19.0 72 3.5 E 6 11 3 6 1014.2 1013.1 0.0
20/08:30pm 24.8 25.6 19.0 70 3.7 ENE 13 22 7 12 1014.0 - 0.0
20/08:00pm 25.7 26.7 18.6 65 4.6 NE 11 19 6 10 1013.6 - 0.0
20/07:30pm 26.6 26.7 19.2 64 4.8 NNE 17 24 9 13 1013.2 - 0.0
20/07:00pm 27.3 27.7 18.9 60 5.4 NNE 15 22 8 12 1012.8 - 0.0
20/06:30pm 28.1 28.0 18.8 57 6.0 NNE 17 26 9 14 1012.2 - 0.0
20/06:00pm 28.8 28.9 19.1 55 6.3 NNE 17 26 9 14 1011.6 1010.5 0.0
20/05:30pm 29.3 27.6 18.1 51 7.2 NE 24 32 13 17 1011.0 - 0.0
20/05:15pm 30.4 27.7 17.5 46 8.3 NE 28 39 15 21 1010.7 - 0.0
20/05:00pm 32.2 31.4 13.9 33 11.2 NNE 11 15 6 8 1010.6 - 0.0
20/04:30pm 32.8 31.7 11.9 28 12.4 NNW 9 13 5 7 1010.5 - 0.0
20/04:00pm 33.5 32.3 10.2 24 13.5 WSW 7 11 4 6 1010.4 - 0.0
20/03:30pm 34.1 33.5 12.4 26 13.1 SW 7 11 4 6 1010.7 - 0.0
20/03:00pm 33.1 32.3 11.0 26 13.0 WNW 6 13 3 7 1011.0 1009.9 0.0
20/02:30pm 33.0 32.7 11.5 27 12.7 S 4 9 2 5 1011.4 - 0.0
20/02:00pm 32.2 31.5 11.4 28 12.2 SSW 6 11 3 6 1011.8 - 0.0
20/01:30pm 32.9 32.8 12.0 28 12.4 NE 4 9 2 5 1012.2 - 0.0
20/01:00pm 33.1 32.7 14.2 32 11.6 NNE 9 20 5 11 1012.5 - 0.0
20/12:30pm 32.8 32.9 13.9 31 11.6 NNE 6 11 3 6 1012.9 - 0.0
20/12:00pm 32.0 31.4 14.6 34 10.7 NW 11 17 6 9 1013.4 1012.3 0.0
20/11:30am 32.1 33.2 17.9 42 9.2 NW 9 17 5 9 1013.8 - 0.0
20/11:00am 31.4 31.9 16.6 41 9.4 WNW 9 13 5 7 1014.2 - 0.0
20/10:30am 31.4 32.9 18.0 44 8.7 E 7 11 4 6 1014.6 - 0.0
20/10:00am 30.6 31.3 17.0 44 8.7 S 9 13 5 7 1014.8 - 0.0
20/09:30am 29.8 31.6 18.3 50 7.4 ENE 6 11 3 6 1014.9 - 0.0
20/09:00am 27.9 30.0 18.9 58 5.8 NW 6 9 3 5 1014.9 1013.8 0.2
20/08:30am 27.3 30.8 20.4 66 4.6 W 2 7 1 4 1014.9 - 0.2
20/08:00am 25.5 28.9 20.1 72 3.5 ENE 2 7 1 4 1015.0 - 0.2
20/07:30am 24.4 27.3 19.9 76 2.9 E 4 9 2 5 1014.9 - 0.2
20/07:00am 23.0 25.9 19.8 82 2.1 SSW 4 9 2 5 1014.8 - 0.2
20/06:30am 20.7 20.6 18.8 89 1.2 ESE 17 20 9 11 1014.6 - 0.2
20/06:00am 19.9 23.0 18.6 92 0.8 CALM 0 0 0 0 1013.6 1012.5 0.2
20/05:30am 18.5 20.8 17.7 95 0.5 ENE 2 9 1 5 1013.3 - 0.2
20/05:00am 18.2 20.8 17.4 95 0.5 CALM 0 0 0 0 1013.0 - 0.2
20/04:30am 18.1 20.5 17.1 94 0.6 CALM 0 0 0 0 1012.7 - 0.2
20/04:00am 18.5 19.8 17.5 94 0.6 SE 7 9 4 5 1012.1 - 0.2
20/03:30am 18.8 20.3 17.6 93 0.7 E 6 9 3 5 1011.9 - 0.2
20/03:00am 19.2 20.8 18.2 94 0.6 E 7 9 4 5 1012.0 1011.0 0.2
20/02:30am 19.4 21.1 18.4 94 0.6 ESE 7 7 4 4 1012.1 - 0.2
20/02:00am 19.5 21.3 18.7 95 0.5 ESE 7 9 4 5 1012.1 - 0.2
20/01:30am 19.9 23.2 19.1 95 0.5 CALM 0 0 0 0 1012.2 - 0.2
20/01:00am 19.4 22.3 18.1 92 0.8 CALM 0 0 0 0 1012.5 - 0.2
20/12:30am 20.1 23.3 18.8 92 0.8 CALM 0 0 0 0 1012.7 - 0.2
20/12:00am 20.3 23.5 18.8 91 0.9 CALM 0 0 0 0 1013.0 1011.9 0.2
 
Date/Time
EST
Temp
°C
App
Temp
°C
Dew
Point
Rel
Hum
%
Delta-T
°C
Wind Press
QNH
hPa
Press
MSL
hPa
Rain
since 9 am
mm
Dir
 
Spd
km/h
Gust
km/h
Spd
kts
Gust
kts
19/11:48pm 20.3 23.5 18.8 91 0.9 CALM 0 0 0 0 1013.1 - 0.2
19/11:30pm 20.5 23.8 19.2 92 0.8 CALM 0 0 0 0 1013.3 - 0.2
19/11:29pm 20.6 24.0 19.3 92 0.8 CALM 0 0 0 0 1013.3 - 0.2
19/11:00pm 21.0 24.5 19.5 91 1.0 CALM 0 0 0 0 1013.6 - 0.2
19/10:30pm 21.4 24.8 19.3 88 1.3 CALM 0 0 0 0 1013.8 - 0.2
19/10:00pm 22.2 25.7 19.6 85 1.7 CALM 0 0 0 0 1013.9 - 0.2
19/09:30pm 22.8 25.4 20.0 84 1.8 E 6 9 3 5 1013.8 - 0.2
19/09:00pm 23.5 27.3 20.2 82 2.2 CALM 0 0 0 0 1013.3 1012.2 0.2
19/08:30pm 23.4 27.0 19.8 80 2.3 CALM 0 0 0 0 1013.1 - 0.2
19/08:00pm 24.9 28.4 19.5 72 3.5 CALM 0 0 0 0 1012.8 - 0.2
19/07:30pm 25.4 28.9 19.5 70 3.8 CALM 0 0 0 0 1012.5 - 0.2
19/07:00pm 26.7 29.2 19.1 63 4.9 NNW 4 6 2 3 1012.2 - 0.2
19/06:30pm 28.1 30.2 19.3 58 5.7 NNW 7 9 4 5 1011.9 - 0.2

Other Formats:

Comma delimited format used in spreadsheet applications
http://www.bom.gov.au/fwo/IDQ60801/IDQ60801.94376.axf

JavaScript Object Notation format (JSON) in row-major order
http://www.bom.gov.au/fwo/IDQ60801/IDQ60801.94376.json